createdAt,value
2023-03-07T00:00:56.241Z,6.03
2023-03-07T00:06:05.540Z,6.19
2023-03-07T00:11:11.466Z,6.35
2023-03-07T00:16:16.957Z,6.53
2023-03-07T00:21:23.961Z,6.71
2023-03-07T00:26:29.788Z,6.88
2023-03-07T00:31:34.570Z,7.06
2023-03-07T00:36:39.426Z,7.23
2023-03-07T00:41:44.043Z,7.42
2023-03-07T00:46:48.633Z,7.56
2023-03-07T00:51:53.519Z,7.76
2023-03-07T00:56:58.360Z,7.95
2023-03-07T01:02:03.390Z,8.16
2023-03-07T01:07:07.644Z,8.37
2023-03-07T01:12:13.356Z,8.56
2023-03-07T01:17:18.058Z,8.77
2023-03-07T01:22:22.854Z,8.96
2023-03-07T01:27:28.108Z,9.17
2023-03-07T01:32:33.779Z,9.38
2023-03-07T01:37:38.673Z,9.61
2023-03-07T01:42:45.110Z,9.79
2023-03-07T01:47:50.653Z,9.99
2023-03-07T01:53:02.332Z,10.16
2023-03-07T01:58:12.270Z,10.37
2023-03-07T02:03:24.391Z,10.54
2023-03-07T02:08:32.276Z,10.74
2023-03-07T02:13:37.042Z,10.93
2023-03-07T02:18:49.777Z,11.07
2023-03-07T02:24:23.950Z,11.27
2023-03-07T02:29:29.655Z,11.44
2023-03-07T02:34:35.482Z,11.63
2023-03-07T02:39:49.811Z,11.85
2023-03-07T02:45:02.184Z,12.04
2023-03-07T02:50:13.826Z,12.26
2023-03-07T02:55:23.096Z,12.45
2023-03-07T03:00:40.488Z,12.64
2023-03-07T03:05:45.732Z,12.81
2023-03-07T03:10:55.830Z,12.99
2023-03-07T03:16:03.264Z,13.17
2023-03-07T03:21:13.726Z,13.34
2023-03-07T03:26:18.952Z,13.48
2023-03-07T03:31:23.865Z,13.68
2023-03-07T03:36:29.908Z,13.87
2023-03-07T03:41:40.364Z,14.07
2023-03-07T03:46:46.007Z,14.23
2023-03-07T03:51:51.608Z,14.38
2023-03-07T03:56:56.990Z,14.51
2023-03-07T04:02:02.457Z,14.69
2023-03-07T04:07:07.654Z,14.87
2023-03-07T04:12:12.762Z,15.02
2023-03-07T04:17:18.060Z,15.21
2023-03-07T04:22:23.319Z,15.43
2023-03-07T04:27:28.741Z,15.58
2023-03-07T04:32:35.571Z,15.70
2023-03-07T04:37:40.791Z,15.77
2023-03-07T04:42:46.025Z,15.92
2023-03-07T04:47:51.266Z,16.01
2023-03-07T04:52:56.773Z,16.14
2023-03-07T04:58:02.418Z,16.24
2023-03-07T05:03:08.321Z,16.35
2023-03-07T05:08:13.641Z,16.48
2023-03-07T05:13:18.934Z,16.62
2023-03-07T05:18:24.356Z,16.73
2023-03-07T05:23:31.184Z,16.79
2023-03-07T05:28:36.331Z,16.91
2023-03-07T05:33:43.873Z,17.02
2023-03-07T05:38:49.490Z,17.08
2023-03-07T05:43:56.118Z,17.15
2023-03-07T05:49:01.278Z,17.24
2023-03-07T05:54:07.368Z,17.42
2023-03-07T05:59:16.649Z,17.56
2023-03-07T06:04:25.010Z,17.62
2023-03-07T06:09:29.579Z,17.69
2023-03-07T06:14:36.491Z,17.77
2023-03-07T06:19:41.626Z,17.90
2023-03-07T06:24:46.725Z,18.02
2023-03-07T06:29:52.277Z,17.99
2023-03-07T06:34:57.473Z,18.02
2023-03-07T06:40:08.864Z,18.02
2023-03-07T06:45:15.702Z,18.04
2023-03-07T06:50:26.630Z,18.08
2023-03-07T06:55:40.404Z,18.11
2023-03-07T07:00:48.434Z,18.12
2023-03-07T07:05:54.548Z,18.14
2023-03-07T07:11:01.029Z,18.13
2023-03-07T07:16:10.049Z,18.15
2023-03-07T07:21:16.906Z,18.13
2023-03-07T07:26:22.104Z,18.13
2023-03-07T07:31:28.737Z,18.15
2023-03-07T07:36:35.514Z,18.13
2023-03-07T07:41:40.819Z,18.10
2023-03-07T07:46:45.986Z,18.08
2023-03-07T07:51:50.670Z,18.03
2023-03-07T07:56:56.040Z,17.99
2023-03-07T08:02:02.035Z,17.96
2023-03-07T08:07:08.389Z,17.88
2023-03-07T08:12:14.087Z,17.84
2023-03-07T08:17:19.375Z,17.76
2023-03-07T08:22:24.363Z,17.67
2023-03-07T08:27:30.075Z,17.58
2023-03-07T08:32:35.213Z,17.51
2023-03-07T08:37:40.982Z,17.39
2023-03-07T08:42:46.106Z,17.28
2023-03-07T08:47:53.812Z,17.22
2023-03-07T08:52:58.865Z,17.12
2023-03-07T08:58:03.919Z,17.01
2023-03-07T09:03:10.125Z,16.87
2023-03-07T09:08:15.222Z,16.73
2023-03-07T09:13:20.324Z,16.60
2023-03-07T09:18:25.452Z,16.55
2023-03-07T09:23:30.676Z,16.41
2023-03-07T09:28:35.941Z,16.24
2023-03-07T09:33:41.689Z,16.04
2023-03-07T09:38:47.012Z,15.85
2023-03-07T09:44:10.156Z,15.68
2023-03-07T09:49:53.978Z,15.48
2023-03-07T09:55:03.097Z,15.26
2023-03-07T10:00:19.013Z,15.08
2023-03-07T10:05:30.181Z,14.93
2023-03-07T10:10:51.257Z,14.81
2023-03-07T10:16:10.674Z,14.67
2023-03-07T10:22:03.485Z,14.56
2023-03-07T10:27:17.006Z,14.38
2023-03-07T10:32:39.097Z,14.37
2023-03-07T10:37:55.234Z,14.31
2023-03-07T10:43:01.665Z,14.26
2023-03-07T10:48:18.312Z,14.20
2023-03-07T10:53:33.677Z,14.08
2023-03-07T10:58:38.730Z,13.96
2023-03-07T11:03:58.526Z,13.90
2023-03-07T11:09:20.681Z,13.86
2023-03-07T11:14:30.116Z,13.83
2023-03-07T11:19:39.331Z,13.81
2023-03-07T11:24:53.090Z,13.76
2023-03-07T11:30:39.424Z,13.72
2023-03-07T11:36:04.245Z,13.68
2023-03-07T11:41:29.924Z,13.61
2023-03-07T11:46:37.235Z,13.53
2023-03-07T11:52:02.872Z,13.46
2023-03-07T11:57:37.958Z,13.41
2023-03-07T12:03:06.845Z,13.32
2023-03-07T12:08:40.171Z,13.05
2023-03-07T12:13:44.733Z,12.65
2023-03-07T12:19:38.178Z,12.28
2023-03-07T12:25:11.958Z,12.12
2023-03-07T12:30:55.301Z,12.12
2023-03-07T12:36:11.318Z,11.92
2023-03-07T12:41:28.653Z,11.67
2023-03-07T12:47:22.502Z,11.67
2023-03-07T12:52:56.572Z,11.76
2023-03-07T12:58:23.252Z,11.83
2023-03-07T13:03:50.083Z,11.92
2023-03-07T13:08:59.788Z,11.93
2023-03-07T13:14:07.973Z,11.93
2023-03-07T13:19:36.906Z,11.90
2023-03-07T13:24:43.081Z,11.90
2023-03-07T13:30:12.248Z,11.68
2023-03-07T13:35:35.401Z,11.37
2023-03-07T13:40:43.541Z,11.14
2023-03-07T13:46:05.919Z,11.17
2023-03-07T13:51:12.121Z,11.24
2023-03-07T13:56:16.881Z,11.31
2023-03-07T14:01:29.182Z,11.30
2023-03-07T14:06:37.897Z,11.29
2023-03-07T14:11:58.060Z,11.27
2023-03-07T14:17:24.337Z,11.25
2023-03-07T14:22:40.445Z,11.28
2023-03-07T14:28:03.762Z,11.30
2023-03-07T14:33:08.412Z,11.15
2023-03-07T14:38:30.933Z,11.05
2023-03-07T14:43:38.592Z,11.07
2023-03-07T14:49:11.586Z,11.16
2023-03-07T14:54:23.331Z,11.21
2023-03-07T14:59:29.677Z,11.24
2023-03-07T15:04:36.973Z,11.23
2023-03-07T15:09:41.766Z,11.21
2023-03-07T15:14:55.609Z,11.25
2023-03-07T15:20:09.371Z,11.30
2023-03-07T15:25:26.207Z,11.33
2023-03-07T15:30:34.927Z,11.32
2023-03-07T15:35:40.015Z,11.11
2023-03-07T15:40:45.428Z,10.89
2023-03-07T15:46:08.335Z,10.79
2023-03-07T15:51:24.796Z,10.83
2023-03-07T15:56:38.957Z,10.89
2023-03-07T16:01:43.798Z,10.93
2023-03-07T16:06:48.572Z,11.05
2023-03-07T16:11:53.405Z,11.18
2023-03-07T16:17:04.068Z,11.26
2023-03-07T16:22:16.328Z,11.30
2023-03-07T16:27:24.525Z,11.34
2023-03-07T16:32:29.240Z,11.35
2023-03-07T16:37:34.110Z,11.26
2023-03-07T16:42:39.520Z,11.11
2023-03-07T16:47:44.916Z,10.96
2023-03-07T16:52:49.464Z,10.97
2023-03-07T16:57:57.948Z,10.99
2023-03-07T17:03:04.532Z,11.02
2023-03-07T17:08:09.943Z,11.02
2023-03-07T17:13:18.718Z,11.03
2023-03-07T17:18:23.664Z,11.03
2023-03-07T17:23:28.279Z,10.97
2023-03-07T17:28:32.880Z,10.91
2023-03-07T17:33:37.569Z,10.79
2023-03-07T17:38:42.118Z,10.63
2023-03-07T17:43:46.657Z,10.38
2023-03-07T17:48:51.263Z,10.13
2023-03-07T17:53:55.338Z,9.95
2023-03-07T17:59:03.356Z,9.93
2023-03-07T18:04:07.853Z,9.96
2023-03-07T18:09:12.891Z,9.94
2023-03-07T18:14:17.612Z,9.89
2023-03-07T18:19:27.233Z,9.87
2023-03-07T18:24:32.108Z,9.81
2023-03-07T18:29:40.442Z,9.76
2023-03-07T18:34:45.407Z,9.64
2023-03-07T18:39:50.154Z,9.54
2023-03-07T18:44:54.920Z,9.35
2023-03-07T18:49:59.581Z,9.18
2023-03-07T18:55:04.140Z,9.00
2023-03-07T19:00:12.507Z,8.84
2023-03-07T19:05:17.292Z,8.79
2023-03-07T19:10:21.997Z,8.74
2023-03-07T19:15:26.610Z,8.76
2023-03-07T19:20:31.263Z,8.75
2023-03-07T19:25:38.956Z,8.76
2023-03-07T19:30:43.650Z,8.71
2023-03-07T19:35:47.783Z,8.71
2023-03-07T19:40:52.383Z,8.71
2023-03-07T19:45:57.671Z,8.70
2023-03-07T19:51:02.438Z,8.57
2023-03-07T19:56:21.855Z,8.34
2023-03-07T20:01:27.179Z,8.13
2023-03-07T20:06:33.568Z,8.10
2023-03-07T20:11:41.358Z,8.11
2023-03-07T20:16:46.020Z,8.12
2023-03-07T20:21:51.564Z,8.20
2023-03-07T20:26:56.335Z,8.33
2023-03-07T20:32:00.640Z,8.48
2023-03-07T20:37:05.326Z,8.42
2023-03-07T20:42:09.978Z,8.30
2023-03-07T20:47:14.652Z,8.21
2023-03-07T20:52:19.439Z,8.17
2023-03-07T20:57:24.308Z,7.99
2023-03-07T21:02:28.958Z,7.73
2023-03-07T21:07:33.617Z,7.58
2023-03-07T21:12:38.277Z,7.63
2023-03-07T21:17:43.209Z,7.68
2023-03-07T21:22:48.080Z,7.81
2023-03-07T21:27:52.726Z,7.74
2023-03-07T21:32:58.876Z,7.69
2023-03-07T21:38:03.526Z,7.68
2023-03-07T21:43:08.213Z,7.65
2023-03-07T21:48:13.141Z,7.65
2023-03-07T21:53:18.043Z,7.65
2023-03-07T21:58:23.727Z,7.54
2023-03-07T22:03:30.509Z,7.35
2023-03-07T22:08:35.241Z,7.10
2023-03-07T22:13:41.490Z,6.98
2023-03-07T22:18:46.005Z,7.03
2023-03-07T22:23:50.728Z,7.00
2023-03-07T22:28:55.811Z,6.98
2023-03-07T22:34:01.361Z,6.90
2023-03-07T22:39:08.436Z,6.82
2023-03-07T22:44:13.292Z,6.83
2023-03-07T22:49:17.952Z,6.89
2023-03-07T22:54:22.631Z,6.92
2023-03-07T22:59:27.397Z,6.92
2023-03-07T23:04:32.341Z,6.90
2023-03-07T23:09:36.955Z,6.78
2023-03-07T23:14:41.587Z,6.69
2023-03-07T23:19:46.270Z,6.70
2023-03-07T23:24:51.006Z,6.78
2023-03-07T23:29:55.664Z,6.90
2023-03-07T23:35:00.413Z,7.00
2023-03-07T23:40:06.249Z,7.13
2023-03-07T23:45:11.480Z,7.28
2023-03-07T23:50:17.151Z,7.44
2023-03-07T23:55:22.019Z,7.63
